createdAt,value
2018-01-22T00:00:17.392Z,2.80
2018-01-22T00:02:43.586Z,2.80
2018-01-22T00:05:09.792Z,2.80
2018-01-22T00:07:36.065Z,3.10
2018-01-22T00:10:02.258Z,2.70
2018-01-22T00:12:29.218Z,2.70
2018-01-22T00:14:55.454Z,2.70
2018-01-22T00:17:21.637Z,2.60
2018-01-22T00:19:47.772Z,2.60
2018-01-22T00:22:13.968Z,2.60
2018-01-22T00:24:40.133Z,2.60
2018-01-22T00:27:06.306Z,2.60
2018-01-22T00:29:32.509Z,2.60
2018-01-22T00:31:59.411Z,2.50
2018-01-22T00:34:25.585Z,2.50
2018-01-22T00:36:51.746Z,2.50
2018-01-22T00:39:17.946Z,2.50
2018-01-22T00:41:44.155Z,2.50
2018-01-22T00:44:11.072Z,2.50
2018-01-22T00:46:37.253Z,2.40
2018-01-22T00:49:03.585Z,2.50
2018-01-22T00:51:29.782Z,2.40
2018-01-22T00:53:56.695Z,2.40
2018-01-22T00:56:22.881Z,2.40
2018-01-22T00:58:49.082Z,2.40
2018-01-22T01:01:15.245Z,2.30
2018-01-22T01:03:41.431Z,2.30
2018-01-22T01:06:07.598Z,2.40
2018-01-22T01:08:33.833Z,2.40
2018-01-22T01:11:00.035Z,2.40
2018-01-22T01:13:26.952Z,2.40
2018-01-22T01:15:54.718Z,2.30
2018-01-22T01:18:20.908Z,2.30
2018-01-22T01:20:47.123Z,2.30
2018-01-22T01:23:13.290Z,2.30
2018-01-22T01:25:39.505Z,2.30
2018-01-22T01:28:05.665Z,2.30
2018-01-22T01:30:31.869Z,2.40
2018-01-22T01:32:58.009Z,2.30
2018-01-22T01:35:24.192Z,2.30
2018-01-22T01:37:50.363Z,2.30
2018-01-22T01:40:16.606Z,2.40
2018-01-22T01:42:42.793Z,2.30
2018-01-22T01:45:08.990Z,2.30
2018-01-22T01:47:35.527Z,2.30
2018-01-22T01:50:02.475Z,2.40
2018-01-22T01:52:29.392Z,2.30
2018-01-22T01:54:55.597Z,2.20
2018-01-22T01:57:21.820Z,2.20
2018-01-22T01:59:47.992Z,2.10
2018-01-22T02:02:14.929Z,2.20
2018-01-22T02:04:41.070Z,2.10
2018-01-22T02:07:07.995Z,2.20
2018-01-22T02:09:34.147Z,2.10
2018-01-22T02:12:00.329Z,2.20
2018-01-22T02:14:26.481Z,2.20
2018-01-22T02:16:52.680Z,2.20
2018-01-22T02:19:18.866Z,2.90
2018-01-22T02:21:45.182Z,2.10
2018-01-22T02:24:12.097Z,2.20
2018-01-22T02:26:38.249Z,2.20
2018-01-22T02:29:05.206Z,2.10
2018-01-22T02:31:32.102Z,2.10
2018-01-22T02:33:58.540Z,2.10
2018-01-22T02:36:24.713Z,2.20
2018-01-22T02:38:51.662Z,2.10
2018-01-22T02:41:18.586Z,2.20
2018-01-22T02:43:44.839Z,2.20
2018-01-22T02:46:11.775Z,2.20
2018-01-22T02:48:38.693Z,2.20
2018-01-22T02:51:04.855Z,2.20
2018-01-22T02:53:31.881Z,2.20
2018-01-22T02:55:58.042Z,2.20
2018-01-22T02:58:24.216Z,2.30
2018-01-22T03:00:50.402Z,2.30
2018-01-22T03:03:16.587Z,2.40
2018-01-22T03:05:42.751Z,2.40
2018-01-22T03:08:08.921Z,2.50
2018-01-22T03:10:35.119Z,2.50
2018-01-22T03:13:01.540Z,2.40
2018-01-22T03:15:27.743Z,2.40
2018-01-22T03:17:53.879Z,2.40
2018-01-22T03:20:20.882Z,2.40
2018-01-22T03:22:47.024Z,2.40
2018-01-22T03:25:13.222Z,2.40
2018-01-22T03:27:39.373Z,2.50
2018-01-22T03:30:05.527Z,2.50
2018-01-22T03:32:31.710Z,2.50
2018-01-22T03:34:58.072Z,2.50
2018-01-22T03:37:24.238Z,2.40
2018-01-22T03:39:50.402Z,2.50
2018-01-22T03:42:16.638Z,2.50
2018-01-22T03:44:42.774Z,2.50
2018-01-22T03:47:08.948Z,2.40
2018-01-22T03:49:35.107Z,2.40
2018-01-22T03:52:01.295Z,2.40
2018-01-22T03:54:28.189Z,2.50
2018-01-22T03:56:54.396Z,2.50
2018-01-22T03:59:20.542Z,2.40
2018-01-22T04:01:46.758Z,2.40
2018-01-22T04:04:12.942Z,2.40
2018-01-22T04:06:39.856Z,2.40
2018-01-22T04:09:06.036Z,2.40
2018-01-22T04:11:32.219Z,2.40
2018-01-22T04:13:58.381Z,2.40
2018-01-22T04:16:25.281Z,2.40
2018-01-22T04:18:51.451Z,2.40
2018-01-22T04:21:18.377Z,2.40
2018-01-22T04:23:44.549Z,2.40
2018-01-22T04:26:11.476Z,2.40
2018-01-22T04:28:38.397Z,2.40
2018-01-22T04:31:05.852Z,2.40
2018-01-22T04:33:32.062Z,2.40
2018-01-22T04:35:58.241Z,2.30
2018-01-22T04:38:24.442Z,2.40
2018-01-22T04:40:52.141Z,2.50
2018-01-22T04:43:18.378Z,2.50
2018-01-22T04:45:44.554Z,2.60
2018-01-22T04:48:10.730Z,2.50
2018-01-22T04:50:36.916Z,2.50
2018-01-22T04:53:03.825Z,2.60
2018-01-22T04:55:30.000Z,2.50
2018-01-22T04:57:56.932Z,2.60
2018-01-22T05:00:23.161Z,2.60
2018-01-22T05:02:49.409Z,2.60
2018-01-22T05:05:16.368Z,2.60
2018-01-22T05:07:42.545Z,2.60
2018-01-22T05:10:08.745Z,2.60
2018-01-22T05:12:34.932Z,2.60
2018-01-22T05:15:01.135Z,2.60
2018-01-22T05:17:27.342Z,2.50
2018-01-22T05:19:53.579Z,2.40
2018-01-22T05:22:19.761Z,2.50
2018-01-22T05:24:46.665Z,2.40
2018-01-22T05:27:12.810Z,2.40
2018-01-22T05:29:40.528Z,2.40
2018-01-22T05:32:06.692Z,2.30
2018-01-22T05:34:32.853Z,2.40
2018-01-22T05:36:59.757Z,2.50
2018-01-22T05:39:25.953Z,2.40
2018-01-22T05:41:52.100Z,2.50
2018-01-22T05:44:18.308Z,2.30
2018-01-22T05:46:44.478Z,2.40
2018-01-22T05:49:10.628Z,2.40
2018-01-22T05:51:37.546Z,2.50
2018-01-22T05:54:03.722Z,2.50
2018-01-22T05:56:30.581Z,2.60
2018-01-22T05:58:57.590Z,2.60
2018-01-22T06:01:24.561Z,2.60
2018-01-22T06:03:50.721Z,2.60
2018-01-22T06:06:16.943Z,2.60
2018-01-22T06:08:43.101Z,2.60
2018-01-22T06:11:09.309Z,2.60
2018-01-22T06:13:35.456Z,2.60
2018-01-22T06:16:01.640Z,2.60
2018-01-22T06:18:29.109Z,2.60
2018-01-22T06:20:56.427Z,2.70
2018-01-22T06:23:23.347Z,2.70
2018-01-22T06:25:49.950Z,2.70
2018-01-22T06:28:16.163Z,2.70
2018-01-22T06:30:42.366Z,2.90
2018-01-22T06:33:09.302Z,2.70
2018-01-22T06:35:36.252Z,2.80
2018-01-22T06:38:03.188Z,2.70
2018-01-22T06:40:29.344Z,2.70
2018-01-22T06:42:55.514Z,2.70
2018-01-22T06:45:21.735Z,2.70
2018-01-22T06:47:47.975Z,2.60
2018-01-22T06:50:14.137Z,2.60
2018-01-22T06:52:41.321Z,2.70
2018-01-22T06:55:07.532Z,2.70
2018-01-22T06:57:34.674Z,2.70
2018-01-22T07:00:02.014Z,2.70
2018-01-22T07:02:28.256Z,2.60
2018-01-22T07:04:55.170Z,2.60
2018-01-22T07:07:21.389Z,2.60
2018-01-22T07:09:47.614Z,2.70
2018-01-22T07:12:13.914Z,2.60
2018-01-22T07:14:40.313Z,2.50
2018-01-22T07:17:06.642Z,2.60
2018-01-22T07:19:33.003Z,2.50
2018-01-22T07:21:59.293Z,2.50
2018-01-22T07:24:25.680Z,2.50
2018-01-22T07:26:51.926Z,2.50
2018-01-22T07:29:18.069Z,2.60
2018-01-22T07:31:44.312Z,2.60
2018-01-22T07:34:10.517Z,2.60
2018-01-22T07:36:36.862Z,2.60
2018-01-22T07:39:03.131Z,2.60
2018-01-22T07:41:30.111Z,2.60
2018-01-22T07:43:56.357Z,2.60
2018-01-22T07:46:22.675Z,2.50
2018-01-22T07:48:49.017Z,2.50
2018-01-22T07:51:15.278Z,2.40
2018-01-22T07:53:41.508Z,2.50
2018-01-22T07:56:07.699Z,2.50
2018-01-22T07:58:34.003Z,2.60
2018-01-22T08:01:00.202Z,2.60
2018-01-22T08:03:27.129Z,2.70
2018-01-22T08:05:53.324Z,2.70
2018-01-22T08:08:19.538Z,2.60
2018-01-22T08:10:45.694Z,2.70
2018-01-22T08:13:11.948Z,2.70
2018-01-22T08:15:38.124Z,2.70
2018-01-22T08:18:04.377Z,2.80
2018-01-22T08:20:30.545Z,2.80
2018-01-22T08:22:57.561Z,2.80
2018-01-22T08:25:24.078Z,2.90
2018-01-22T08:27:50.294Z,2.50
2018-01-22T08:30:16.482Z,2.90
2018-01-22T08:32:43.438Z,2.90
2018-01-22T08:35:10.365Z,3.00
2018-01-22T08:37:36.606Z,2.90
2018-01-22T08:40:03.602Z,2.90
2018-01-22T08:42:29.930Z,3.00
2018-01-22T08:44:56.118Z,2.90
2018-01-22T08:47:23.171Z,2.90
2018-01-22T08:49:50.151Z,2.90
2018-01-22T08:52:16.491Z,3.00
2018-01-22T08:54:42.731Z,3.10
2018-01-22T08:57:08.982Z,3.10
2018-01-22T08:59:35.210Z,3.30
2018-01-22T09:02:01.505Z,3.30
2018-01-22T09:04:27.991Z,3.20
2018-01-22T09:06:55.041Z,3.20
2018-01-22T09:09:22.038Z,3.20
2018-01-22T09:11:48.285Z,3.20
2018-01-22T09:14:14.620Z,3.10
2018-01-22T09:16:40.816Z,3.10
2018-01-22T09:19:07.126Z,3.10
2018-01-22T09:21:33.468Z,3.10
2018-01-22T09:24:00.048Z,3.10
2018-01-22T09:26:26.328Z,3.10
2018-01-22T09:28:52.542Z,3.00
2018-01-22T09:31:19.631Z,2.90
2018-01-22T09:33:45.866Z,3.00
2018-01-22T09:36:12.537Z,3.10
2018-01-22T09:38:39.046Z,3.10
2018-01-22T09:41:06.031Z,3.10
2018-01-22T09:43:33.080Z,3.10
2018-01-22T09:46:00.781Z,3.10
2018-01-22T09:48:41.945Z,3.10
2018-01-22T09:51:16.212Z,3.10
2018-01-22T09:59:24.331Z,3.50
2018-01-22T10:01:51.139Z,3.60
2018-01-22T10:04:17.754Z,2.40
2018-01-22T10:06:43.980Z,3.60
2018-01-22T10:09:10.211Z,3.60
2018-01-22T10:11:36.518Z,3.70
2018-01-22T10:14:02.801Z,3.90
2018-01-22T10:16:28.999Z,4.00
2018-01-22T10:18:55.230Z,4.10
2018-01-22T10:21:22.233Z,3.90
2018-01-22T10:23:49.909Z,3.90
2018-01-22T10:26:16.179Z,3.80
2018-01-22T10:28:44.076Z,3.80
2018-01-22T10:31:11.007Z,3.80
2018-01-22T10:33:37.271Z,3.90
2018-01-22T10:36:03.795Z,3.90
2018-01-22T10:38:31.076Z,3.80
2018-01-22T10:40:57.315Z,3.90
2018-01-22T10:43:23.497Z,3.90
2018-01-22T10:45:50.505Z,3.90
2018-01-22T10:48:16.899Z,3.80
2018-01-22T10:50:43.086Z,3.90
2018-01-22T10:53:09.355Z,3.80
2018-01-22T10:55:35.602Z,3.80
2018-01-22T10:58:01.870Z,4.00
2018-01-22T11:00:28.070Z,4.00
2018-01-22T11:02:54.965Z,4.00
2018-01-22T11:05:21.889Z,4.10
2018-01-22T11:07:48.107Z,4.10
2018-01-22T11:10:14.334Z,4.20
2018-01-22T11:12:41.304Z,4.20
2018-01-22T11:15:08.069Z,4.20
2018-01-22T11:17:34.311Z,4.30
2018-01-22T11:20:00.510Z,4.30
2018-01-22T11:22:27.690Z,4.50
2018-01-22T11:24:53.911Z,4.50
2018-01-22T11:27:20.119Z,4.40
2018-01-22T11:29:47.076Z,4.20
2018-01-22T11:32:13.270Z,4.20
2018-01-22T11:34:40.220Z,4.10
2018-01-22T11:37:06.609Z,2.40
2018-01-22T11:39:32.939Z,4.40
2018-01-22T11:42:00.760Z,4.50
2018-01-22T11:44:28.501Z,4.50
2018-01-22T11:46:55.758Z,4.40
2018-01-22T11:49:22.120Z,4.40
2018-01-22T11:51:48.698Z,4.40
2018-01-22T11:54:14.928Z,4.50
2018-01-22T11:56:41.836Z,4.50
2018-01-22T11:59:09.903Z,4.50
2018-01-22T12:01:36.954Z,4.40
2018-01-22T12:04:03.650Z,4.40
2018-01-22T12:06:29.922Z,4.50
2018-01-22T12:08:56.851Z,4.50
2018-01-22T12:11:23.234Z,4.50
2018-01-22T12:13:49.447Z,4.50
2018-01-22T12:16:15.756Z,4.60
2018-01-22T12:18:43.023Z,4.80
2018-01-22T12:21:10.065Z,4.90
2018-01-22T12:23:37.654Z,5.00
2018-01-22T12:26:03.950Z,5.20
2018-01-22T12:28:30.930Z,5.30
2018-01-22T12:30:57.981Z,5.30
2018-01-22T12:33:24.572Z,5.50
2018-01-22T12:35:50.771Z,5.60
2018-01-22T12:38:17.041Z,5.70
2018-01-22T12:40:44.013Z,5.60
2018-01-22T12:43:11.200Z,5.50
2018-01-22T12:45:37.590Z,5.60
2018-01-22T12:48:03.960Z,5.60
2018-01-22T12:50:30.136Z,5.70
2018-01-22T12:52:57.147Z,5.80
2018-01-22T12:55:23.382Z,5.80
2018-01-22T12:57:49.680Z,5.80
2018-01-22T13:00:15.877Z,5.90
2018-01-22T13:02:42.899Z,5.90
2018-01-22T13:05:14.082Z,5.80
2018-01-22T13:07:40.322Z,5.80
2018-01-22T13:10:06.581Z,5.70
2018-01-22T13:12:33.202Z,5.70
2018-01-22T13:15:00.021Z,5.70
2018-01-22T13:17:26.252Z,5.70
2018-01-22T13:19:52.502Z,5.60
2018-01-22T13:22:18.839Z,5.40
2018-01-22T13:24:45.264Z,5.30
2018-01-22T13:27:11.539Z,5.20
2018-01-22T13:29:38.723Z,5.20
2018-01-22T13:32:05.695Z,5.20
2018-01-22T13:34:31.898Z,5.20
2018-01-22T13:36:58.811Z,5.20
2018-01-22T13:39:25.012Z,5.20
2018-01-22T13:41:51.665Z,5.20
2018-01-22T13:44:17.933Z,5.20
2018-01-22T13:46:46.251Z,5.20
2018-01-22T13:49:12.609Z,5.10
2018-01-22T13:51:38.904Z,5.10
2018-01-22T13:54:09.887Z,5.10
2018-01-22T13:56:36.529Z,5.10
2018-01-22T13:59:02.759Z,5.10
2018-01-22T14:01:30.541Z,5.10
2018-01-22T14:03:57.579Z,5.10
2018-01-22T14:06:25.150Z,5.10
2018-01-22T14:08:52.153Z,5.10
2018-01-22T14:11:18.410Z,5.10
2018-01-22T14:13:44.586Z,5.10
2018-01-22T14:16:10.805Z,5.40
2018-01-22T14:18:37.012Z,5.40
2018-01-22T14:21:03.672Z,5.40
2018-01-22T14:23:29.890Z,5.40
2018-01-22T14:25:56.781Z,5.80
2018-01-22T14:28:24.323Z,6.10
2018-01-22T14:30:51.466Z,6.60
2018-01-22T14:33:18.789Z,6.40
2018-01-22T14:35:46.999Z,6.20
2018-01-22T14:38:13.166Z,6.10
2018-01-22T14:40:39.345Z,6.10
2018-01-22T14:43:05.548Z,5.90
2018-01-22T14:45:32.475Z,5.70
2018-01-22T14:47:59.549Z,5.70
2018-01-22T14:50:26.473Z,5.70
2018-01-22T14:52:52.736Z,5.70
2018-01-22T14:55:19.799Z,5.70
2018-01-22T14:57:46.021Z,5.60
2018-01-22T15:00:12.236Z,5.50
2018-01-22T15:02:39.154Z,5.40
2018-01-22T15:05:06.060Z,5.40
2018-01-22T15:07:32.324Z,5.40
2018-01-22T15:10:00.074Z,5.30
2018-01-22T15:12:26.331Z,5.30
2018-01-22T15:14:52.578Z,5.30
2018-01-22T15:17:19.877Z,5.30
2018-01-22T15:19:47.217Z,5.40
2018-01-22T15:22:13.439Z,5.30
2018-01-22T15:24:39.618Z,5.30
2018-01-22T15:27:05.852Z,5.10
2018-01-22T15:29:32.099Z,5.10
2018-01-22T15:32:00.025Z,5.10
2018-01-22T15:34:26.255Z,5.10
2018-01-22T15:36:52.512Z,5.10
2018-01-22T15:39:18.809Z,5.00
2018-01-22T15:41:45.080Z,5.00
2018-01-22T15:44:12.127Z,5.10
2018-01-22T15:46:39.090Z,5.10
2018-01-22T15:49:05.294Z,5.10
2018-01-22T15:51:31.590Z,5.20
2018-01-22T15:53:57.913Z,5.10
2018-01-22T15:56:24.222Z,5.10
2018-01-22T15:58:51.124Z,5.10
2018-01-22T16:01:17.480Z,5.00
2018-01-22T16:03:45.660Z,5.10
2018-01-22T16:06:12.640Z,5.00
2018-01-22T16:08:38.986Z,5.00
2018-01-22T16:11:06.562Z,5.10
2018-01-22T16:13:34.228Z,5.10
2018-01-22T16:16:15.428Z,5.10
2018-01-22T16:18:42.426Z,5.10
2018-01-22T16:21:08.617Z,5.10
2018-01-22T16:23:35.001Z,5.00
2018-01-22T16:26:01.337Z,5.00
2018-01-22T16:28:27.606Z,5.00
2018-01-22T16:30:54.543Z,5.00
2018-01-22T16:33:22.179Z,5.00
2018-01-22T16:35:48.410Z,4.90
2018-01-22T16:38:14.642Z,4.90
2018-01-22T16:40:42.753Z,5.00
2018-01-22T16:43:09.670Z,5.10
2018-01-22T16:45:36.862Z,5.10
2018-01-22T16:48:03.721Z,5.10
2018-01-22T16:50:30.613Z,5.10
2018-01-22T16:52:56.777Z,5.20
2018-01-22T16:55:23.424Z,5.10
2018-01-22T16:57:49.682Z,5.10
2018-01-22T17:00:15.924Z,5.10
2018-01-22T17:02:42.276Z,5.10
2018-01-22T17:05:09.582Z,5.20
2018-01-22T17:07:35.701Z,5.20
2018-01-22T17:10:02.305Z,5.20
2018-01-22T17:12:29.103Z,5.30
2018-01-22T17:14:55.387Z,5.30
2018-01-22T17:17:21.642Z,5.30
2018-01-22T17:19:48.826Z,5.30
2018-01-22T17:22:15.992Z,5.30
2018-01-22T17:24:43.027Z,5.40
2018-01-22T17:27:09.785Z,5.40
2018-01-22T17:29:36.071Z,5.40
2018-01-22T17:32:03.273Z,5.50
2018-01-22T17:34:30.231Z,5.90
2018-01-22T17:36:57.253Z,6.10
2018-01-22T17:39:23.503Z,6.10
2018-01-22T17:41:51.261Z,6.10
2018-01-22T17:44:18.201Z,6.00
2018-01-22T17:46:44.414Z,6.00
2018-01-22T17:49:10.638Z,6.00
2018-01-22T17:51:37.498Z,5.90
2018-01-22T17:54:06.274Z,5.90
2018-01-22T17:56:32.475Z,5.80
2018-01-22T17:58:59.518Z,5.80
2018-01-22T18:01:25.764Z,5.80
2018-01-22T18:03:51.994Z,5.80
2018-01-22T18:06:18.175Z,5.80
2018-01-22T18:08:45.202Z,5.90
2018-01-22T18:11:12.184Z,5.90
2018-01-22T18:13:38.408Z,5.90
2018-01-22T18:16:04.698Z,5.90
2018-01-22T18:18:30.923Z,5.90
2018-01-22T18:20:57.192Z,6.00
2018-01-22T18:23:23.539Z,6.00
2018-01-22T18:25:49.794Z,5.90
2018-01-22T18:28:16.060Z,6.00
2018-01-22T18:30:42.253Z,6.10
2018-01-22T18:33:09.492Z,6.10
2018-01-22T18:35:35.699Z,6.10
2018-01-22T18:38:01.932Z,6.10
2018-01-22T18:40:28.838Z,6.20
2018-01-22T18:42:55.273Z,6.10
2018-01-22T18:45:22.261Z,6.20
2018-01-22T18:47:48.569Z,6.20
2018-01-22T18:50:15.658Z,6.20
2018-01-22T18:52:42.673Z,6.20
2018-01-22T18:55:08.910Z,6.40
2018-01-22T18:57:35.066Z,6.20
2018-01-22T19:00:01.362Z,6.30
2018-01-22T19:02:28.376Z,6.30
2018-01-22T19:04:54.759Z,7.70
2018-01-22T19:07:20.985Z,6.30
2018-01-22T19:09:47.272Z,6.30
2018-01-22T19:12:14.263Z,6.40
2018-01-22T19:14:40.556Z,6.40
2018-01-22T19:17:07.682Z,6.40
2018-01-22T19:19:33.925Z,6.40
2018-01-22T19:22:00.189Z,6.50
2018-01-22T19:24:26.872Z,6.40
2018-01-22T19:26:53.692Z,6.50
2018-01-22T19:29:20.969Z,6.50
2018-01-22T19:31:47.512Z,6.40
2018-01-22T19:34:13.874Z,6.50
2018-01-22T19:36:40.922Z,6.50
2018-01-22T19:39:08.527Z,6.50
2018-01-22T19:41:34.826Z,6.50
2018-01-22T19:44:03.017Z,6.50
2018-01-22T19:49:01.393Z,6.50
2018-01-22T19:51:28.404Z,6.50
2018-01-22T19:53:58.145Z,6.50
2018-01-22T19:56:25.085Z,6.50
2018-01-22T19:58:51.363Z,6.50
2018-01-22T20:01:17.627Z,6.40
2018-01-22T20:03:43.974Z,6.50
2018-01-22T20:06:11.700Z,6.50
2018-01-22T20:08:37.936Z,6.50
2018-01-22T20:11:05.187Z,6.70
2018-01-22T20:13:31.568Z,6.50
2018-01-22T20:15:57.800Z,6.50
2018-01-22T20:18:24.755Z,6.60
2018-01-22T20:20:51.034Z,6.60
2018-01-22T20:23:17.785Z,6.50
2018-01-22T20:25:44.915Z,6.60
2018-01-22T20:28:12.692Z,6.60
2018-01-22T20:30:39.791Z,6.50
2018-01-22T20:33:06.801Z,6.50
2018-01-22T20:35:33.068Z,6.40
2018-01-22T20:38:00.056Z,6.50
2018-01-22T20:40:26.258Z,6.50
2018-01-22T20:42:52.515Z,6.40
2018-01-22T20:45:18.731Z,6.40
2018-01-22T20:47:44.957Z,6.40
2018-01-22T20:50:11.211Z,6.40
2018-01-22T20:52:37.427Z,6.40
2018-01-22T20:55:04.463Z,6.40
2018-01-22T20:57:30.740Z,6.40
2018-01-22T20:59:57.682Z,6.40
2018-01-22T21:02:23.881Z,6.40
2018-01-22T21:04:50.159Z,6.40
2018-01-22T21:07:17.184Z,6.40
2018-01-22T21:09:44.334Z,6.30
2018-01-22T21:12:10.538Z,6.40
2018-01-22T21:14:36.742Z,6.30
2018-01-22T21:17:03.825Z,6.30
2018-01-22T21:19:30.043Z,6.30
2018-01-22T21:21:56.659Z,6.30
2018-01-22T21:24:22.888Z,6.30
2018-01-22T21:26:50.200Z,6.30
2018-01-22T21:29:16.431Z,6.30
2018-01-22T21:31:43.030Z,6.30
2018-01-22T21:34:09.266Z,6.30
2018-01-22T21:36:35.679Z,6.30
2018-01-22T21:39:01.956Z,6.20
2018-01-22T21:41:29.705Z,6.30
2018-01-22T21:43:56.567Z,6.20
2018-01-22T21:46:22.763Z,6.20
2018-01-22T21:48:49.044Z,6.30
2018-01-22T21:51:15.975Z,6.30
2018-01-22T21:53:42.181Z,6.30
2018-01-22T21:56:08.500Z,6.30
2018-01-22T21:58:35.872Z,6.30
2018-01-22T22:01:03.216Z,6.20
2018-01-22T22:03:29.806Z,6.30
2018-01-22T22:05:56.769Z,6.30
2018-01-22T22:08:23.027Z,6.20
2018-01-22T22:10:49.244Z,6.30
2018-01-22T22:13:15.442Z,6.20
2018-01-22T22:15:42.487Z,6.20
2018-01-22T22:18:09.402Z,6.20
2018-01-22T22:20:36.622Z,6.20
2018-01-22T22:23:02.812Z,6.20
2018-01-22T22:25:29.722Z,6.20
2018-01-22T22:27:56.521Z,6.20
2018-01-22T22:30:23.108Z,6.20
2018-01-22T22:32:52.631Z,6.30
2018-01-22T22:35:21.459Z,6.30
2018-01-22T22:37:47.815Z,6.30
2018-01-22T22:40:14.065Z,6.30
2018-01-22T22:42:41.975Z,6.30
2018-01-22T22:45:09.703Z,6.20
2018-01-22T22:47:35.905Z,6.30
2018-01-22T22:50:17.085Z,6.30
2018-01-22T22:52:43.284Z,6.30
2018-01-22T22:55:09.574Z,6.30
2018-01-22T22:57:35.856Z,8.60
2018-01-22T23:00:02.134Z,6.30
2018-01-22T23:02:28.993Z,6.30
2018-01-22T23:04:55.945Z,6.30
2018-01-22T23:07:22.876Z,6.30
2018-01-22T23:09:49.840Z,6.30
2018-01-22T23:12:16.031Z,6.30
2018-01-22T23:14:45.748Z,6.30
2018-01-22T23:17:12.090Z,6.30
2018-01-22T23:19:38.345Z,6.30
2018-01-22T23:22:05.291Z,6.30
2018-01-22T23:24:37.703Z,6.20
2018-01-22T23:27:04.469Z,6.20
2018-01-22T23:29:31.265Z,6.20
2018-01-22T23:31:58.049Z,6.10
2018-01-22T23:34:24.279Z,6.10
2018-01-22T23:36:52.289Z,6.20
2018-01-22T23:39:21.374Z,6.10
2018-01-22T23:41:48.318Z,6.10
2018-01-22T23:44:15.861Z,6.10
2018-01-22T23:46:42.020Z,6.00
2018-01-22T23:49:08.189Z,6.00
2018-01-22T23:51:35.011Z,6.10
2018-01-22T23:54:01.218Z,6.10
2018-01-22T23:56:27.352Z,6.10
2018-01-22T23:58:53.550Z,6.10
